Time;durP1;ratioP1;P1;durP2;ratioP2;P2;SDS_P1;SDS_P2;PMS_P1;PMS_P2;Temp;Humidity;BMP_temperature;BMP_pressure;BME280_temperature;BME280_humidity;BME280_pressure;Samples;Min_cycle;Max_cycle;Signal;HPM_P1;HPM_P2
2022/02/01 00:02:46;;;;;;;9.40;2.42;;;;;;;;;;4990057;28;20713;-65
2022/02/01 00:05:27;;;;;;;8.07;2.33;;;;;;;;;;4989355;28;20054;-65
2022/02/01 00:08:09;;;;;;;9.32;2.17;;;;;;;;;;4970021;28;20051;-64
2022/02/01 00:13:26;;;;;;;5.68;2.10;;;;;;;;;;4950828;28;20055;-64
2022/02/01 00:41:28;;;;;;;5.60;2.80;;;;;;;;;;4871807;29;20049;-65
2022/02/01 00:44:00;;;;;;;6.90;2.60;;;;;;;;;;4825686;29;20042;-65
2022/02/01 00:46:31;;;;;;;5.03;2.10;;;;;;;;;;4888154;29;20059;-65
2022/02/01 00:49:01;;;;;;;5.30;2.17;;;;;;;;;;4862125;29;20143;-65
2022/02/01 00:51:35;;;;;;;4.55;1.98;;;;;;;;;;4878612;29;20056;-66
2022/02/01 00:54:05;;;;;;;6.85;1.95;;;;;;;;;;4893575;29;20064;-64
2022/02/01 00:56:35;;;;;;;5.55;1.85;;;;;;;;;;4893493;29;20060;-65
2022/02/01 00:59:06;;;;;;;7.13;2.80;;;;;;;;;;4893136;29;20060;-64
2022/02/01 01:01:36;;;;;;;8.00;2.50;;;;;;;;;;4874701;29;20053;-65
2022/02/01 01:04:07;;;;;;;9.00;1.92;;;;;;;;;;4871902;29;20057;-64
2022/02/01 01:06:37;;;;;;;7.00;1.73;;;;;;;;;;4874450;29;20060;-63
2022/02/01 01:09:07;;;;;;;5.65;1.98;;;;;;;;;;4893208;29;20059;-63
2022/02/01 01:11:37;;;;;;;4.78;1.73;;;;;;;;;;4901254;29;20064;-63
2022/02/01 01:45:38;;;;;;;5.10;2.33;;;;;;;;;;4930876;29;20514;-63
2022/02/01 01:53:48;;;;;;;7.35;1.95;;;;;;;;;;4903937;28;20059;-62
2022/02/01 01:56:18;;;;;;;2.88;1.40;;;;;;;;;;4969110;28;20070;-63
2022/02/01 01:58:48;;;;;;;6.80;2.13;;;;;;;;;;4971301;28;20055;-63
2022/02/01 02:01:19;;;;;;;9.02;1.83;;;;;;;;;;4977909;28;20069;-63
2022/02/01 02:03:50;;;;;;;16.92;2.53;;;;;;;;;;5027837;28;20060;-63
2022/02/01 02:06:20;;;;;;;5.47;1.92;;;;;;;;;;4995385;28;20053;-62
2022/02/01 02:08:54;;;;;;;5.72;2.13;;;;;;;;;;5011777;28;20065;-63
2022/02/01 02:11:31;;;;;;;7.30;1.95;;;;;;;;;;5011692;28;20060;-63
2022/02/01 02:16:58;;;;;;;5.53;1.70;;;;;;;;;;5021441;28;20157;-63
2022/02/01 02:19:30;;;;;;;;;;;;;;;;;;5039374;28;20053;-62
2022/02/01 02:22:03;;;;;;;7.00;2.15;;;;;;;;;;5071395;28;20051;-63
2022/02/01 02:24:38;;;;;;;9.18;2.08;;;;;;;;;;5071308;28;20056;-63
2022/02/01 02:27:08;;;;;;;8.48;2.92;;;;;;;;;;5038021;28;20415;-63
2022/02/01 02:29:39;;;;;;;6.95;2.22;;;;;;;;;;5038199;28;20048;-63
2022/02/01 02:32:10;;;;;;;7.85;2.53;;;;;;;;;;4998035;28;20060;-63
2022/02/01 02:34:40;;;;;;;8.20;3.63;;;;;;;;;;5014602;28;20609;-63
2022/02/01 02:37:15;;;;;;;6.10;2.33;;;;;;;;;;5014156;28;20049;-63
2022/02/01 02:40:00;;;;;;;7.03;2.40;;;;;;;;;;5010710;28;20061;-63
2022/02/01 02:45:04;;;;;;;5.93;2.08;;;;;;;;;;5012983;28;20061;-63
2022/02/01 02:45:21;;;;;;;8.80;2.40;;;;;;;;;;5070629;28;20157;-63
2022/02/01 02:47:51;;;;;;;6.18;1.95;;;;;;;;;;5020885;28;20048;-62
2022/02/01 02:50:23;;;;;;;7.75;2.30;;;;;;;;;;5050321;28;20517;-63
2022/02/01 02:52:54;;;;;;;10.07;2.30;;;;;;;;;;5050662;28;20056;-63
2022/02/01 02:55:24;;;;;;;8.38;2.30;;;;;;;;;;5030221;28;20049;-63
2022/02/01 02:57:55;;;;;;;6.03;2.38;;;;;;;;;;5030527;28;20066;-63
2022/02/01 03:00:25;;;;;;;6.28;2.20;;;;;;;;;;4997590;28;20084;-63
2022/02/01 03:02:55;;;;;;;6.30;2.40;;;;;;;;;;5030503;28;20058;-62
2022/02/01 03:05:25;;;;;;;5.78;2.50;;;;;;;;;;4990546;28;20057;-62
2022/02/01 03:07:57;;;;;;;9.05;2.65;;;;;;;;;;4991152;28;20062;-63
2022/02/01 03:10:27;;;;;;;13.07;2.50;;;;;;;;;;4974763;28;20170;-63
2022/02/01 03:13:24;;;;;;;8.57;2.30;;;;;;;;;;4971649;28;20170;-63
2022/02/01 03:16:05;;;;;;;7.60;2.67;;;;;;;;;;4971337;28;20436;-63
2022/02/01 03:21:23;;;;;;;8.77;2.67;;;;;;;;;;4919401;29;20067;-62
2022/02/01 03:23:54;;;;;;;18.23;2.85;;;;;;;;;;4894446;29;20056;-63
2022/02/01 03:26:25;;;;;;;9.52;2.35;;;;;;;;;;4879375;29;20060;-63
2022/02/01 03:28:56;;;;;;;6.30;2.42;;;;;;;;;;4911563;29;20056;-63
2022/02/01 03:31:26;;;;;;;6.53;2.17;;;;;;;;;;4913947;29;20060;-62
2022/02/01 03:33:56;;;;;;;9.50;2.60;;;;;;;;;;4965254;28;20051;-63
2022/02/01 03:36:27;;;;;;;8.13;2.45;;;;;;;;;;4970693;28;20055;-62
2022/02/01 03:39:01;;;;;;;9.20;2.88;;;;;;;;;;4938494;28;20565;-62
2022/02/01 03:41:31;;;;;;;8.93;2.78;;;;;;;;;;4970938;28;20526;-62
2022/02/01 03:44:04;;;;;;;5.82;2.83;;;;;;;;;;5005460;28;20066;-62
2022/02/01 03:46:35;;;;;;;8.85;2.17;;;;;;;;;;4993753;28;20205;-62
2022/02/01 03:49:05;;;;;;;9.60;3.03;;;;;;;;;;5009798;28;20093;-62
2022/02/01 03:51:35;;;;;;;5.53;2.58;;;;;;;;;;5009832;28;20061;-62
2022/02/01 03:54:05;;;;;;;9.60;2.75;;;;;;;;;;5009441;28;20050;-62
2022/02/01 03:56:35;;;;;;;6.95;2.65;;;;;;;;;;5022434;28;20064;-62
2022/02/01 03:59:06;;;;;;;8.65;2.80;;;;;;;;;;5039634;28;20064;-62
2022/02/01 04:01:36;;;;;;;6.38;2.78;;;;;;;;;;4999840;28;20436;-62
2022/02/01 04:04:07;;;;;;;9.40;3.28;;;;;;;;;;5032374;28;20080;-63
2022/02/01 04:06:37;;;;;;;6.90;2.72;;;;;;;;;;5049184;28;20045;-63
2022/02/01 04:09:07;;;;;;;5.85;2.83;;;;;;;;;;5033229;28;20657;-62
2022/02/01 04:11:38;;;;;;;10.20;2.78;;;;;;;;;;5074690;28;20507;-62
2022/02/01 04:14:08;;;;;;;10.20;2.60;;;;;;;;;;5059458;28;20533;-62
2022/02/01 04:16:38;;;;;;;8.30;3.05;;;;;;;;;;5111925;28;20043;-62
2022/02/01 04:19:09;;;;;;;11.88;2.80;;;;;;;;;;5068515;28;20492;-62
2022/02/01 04:21:45;;;;;;;9.82;2.97;;;;;;;;;;5068463;28;20627;-62
2022/02/01 04:24:16;;;;;;;8.45;3.03;;;;;;;;;;5048328;28;20517;-63
2022/02/01 04:26:46;;;;;;;6.43;2.70;;;;;;;;;;5048792;28;20511;-62
2022/02/01 04:29:16;;;;;;;7.60;2.78;;;;;;;;;;5031564;28;20041;-62
2022/02/01 04:31:46;;;;;;;6.63;3.00;;;;;;;;;;4992205;28;20157;-62
2022/02/01 04:34:17;;;;;;;10.48;2.75;;;;;;;;;;4976652;28;20089;-62
2022/02/01 04:36:50;;;;;;;6.57;2.42;;;;;;;;;;4992143;28;20065;-62
2022/02/01 04:39:20;;;;;;;10.00;2.40;;;;;;;;;;5008876;28;20085;-62
2022/02/01 04:41:53;;;;;;;;;;;;;;;;;;4993642;28;20693;-62
2022/02/01 04:44:26;;;;;;;5.72;2.42;;;;;;;;;;4976699;28;19929;-62
2022/02/01 04:46:56;;;;;;;9.32;3.08;;;;;;;;;;5009037;28;20054;-62
2022/02/01 04:49:27;;;;;;;6.05;2.70;;;;;;;;;;4953018;28;20047;-62
2022/02/01 04:51:57;;;;;;;9.95;2.63;;;;;;;;;;4937895;28;20054;-62
2022/02/01 04:54:27;;;;;;;5.82;2.55;;;;;;;;;;4969712;28;20063;-62
2022/02/01 04:56:58;;;;;;;8.77;2.80;;;;;;;;;;4980828;28;20065;-62
2022/02/01 04:59:28;;;;;;;5.57;2.67;;;;;;;;;;4989114;28;20043;-62
2022/02/01 05:01:58;;;;;;;7.68;3.35;;;;;;;;;;5009822;28;20426;-62
2022/02/01 05:04:29;;;;;;;10.98;3.05;;;;;;;;;;4995699;28;20076;-62
2022/02/01 05:07:00;;;;;;;8.02;2.17;;;;;;;;;;5002040;28;20422;-62
2022/02/01 05:09:32;;;;;;;4.55;2.15;;;;;;;;;;4997366;28;20052;-62
2022/02/01 05:12:06;;;;;;;6.03;2.33;;;;;;;;;;5048634;28;20424;-62
2022/02/01 05:14:37;;;;;;;5.20;2.22;;;;;;;;;;5047813;28;20053;-62
2022/02/01 05:17:07;;;;;;;8.75;2.35;;;;;;;;;;5048194;28;20053;-62
2022/02/01 05:22:18;;;;;;;2.92;1.70;;;;;;;;;;5008385;28;20054;-63
2022/02/01 05:24:52;;;;;;;5.65;2.30;;;;;;;;;;5008499;28;20050;-62
2022/02/01 05:27:28;;;;;;;7.40;2.60;;;;;;;;;;5045303;28;20056;-63
2022/02/01 05:29:58;;;;;;;5.47;2.22;;;;;;;;;;5067963;28;20047;-62
2022/02/01 05:32:28;;;;;;;7.10;2.47;;;;;;;;;;4997603;28;20049;-62
2022/02/01 05:34:59;;;;;;;6.50;2.33;;;;;;;;;;5031873;28;20079;-63
2022/02/01 05:37:30;;;;;;;8.80;2.50;;;;;;;;;;5024548;28;20057;-62
2022/02/01 05:40:03;;;;;;;8.43;2.78;;;;;;;;;;5011910;28;20057;-62
2022/02/01 05:45:28;;;;;;;7.15;2.47;;;;;;;;;;4972554;28;20054;-62
2022/02/01 05:47:58;;;;;;;8.43;2.50;;;;;;;;;;4956427;28;20063;-62
2022/02/01 05:50:30;;;;;;;13.02;2.63;;;;;;;;;;4918113;29;20047;-62
2022/02/01 05:53:01;;;;;;;5.47;2.38;;;;;;;;;;4918880;29;20067;-62
2022/02/01 05:55:32;;;;;;;11.95;3.33;;;;;;;;;;4899730;29;20536;-62
2022/02/01 05:58:03;;;;;;;8.77;2.35;;;;;;;;;;4915550;29;20064;-62
2022/02/01 06:00:34;;;;;;;4.10;2.08;;;;;;;;;;4937334;28;20054;-62
2022/02/01 06:03:05;;;;;;;5.53;2.28;;;;;;;;;;4953331;28;20423;-62
2022/02/01 06:05:36;;;;;;;8.60;2.20;;;;;;;;;;4952837;28;20509;-62
2022/02/01 06:08:07;;;;;;;6.80;2.47;;;;;;;;;;4937717;29;20059;-62
2022/02/01 06:10:37;;;;;;;10.93;2.60;;;;;;;;;;4953060;28;20082;-62
2022/02/01 06:13:08;;;;;;;5.40;2.47;;;;;;;;;;4933757;28;20052;-62
2022/02/01 06:15:39;;;;;;;7.78;2.65;;;;;;;;;;4933855;29;20440;-62
2022/02/01 06:18:09;;;;;;;8.70;2.80;;;;;;;;;;4870433;29;20120;-62
2022/02/01 06:20:39;;;;;;;7.00;2.63;;;;;;;;;;4895984;29;20060;-62
2022/02/01 06:23:17;;;;;;;10.38;2.72;;;;;;;;;;4919536;29;20063;-62
2022/02/01 06:25:49;;;;;;;7.78;2.20;;;;;;;;;;4914471;29;20068;-62
2022/02/01 06:28:28;;;;;;;7.88;2.55;;;;;;;;;;4917612;29;20551;-62
2022/02/01 06:30:57;;;;;;;;;;;;;;;;;;4898807;29;20453;-62
2022/02/01 06:33:27;;;;;;;8.45;2.45;;;;;;;;;;4914666;29;19930;-62
2022/02/01 06:35:57;;;;;;;6.95;2.70;;;;;;;;;;4914488;29;20433;-62
2022/02/01 06:38:28;;;;;;;7.35;2.65;;;;;;;;;;4928638;29;20062;-62
2022/02/01 06:40:58;;;;;;;7.93;3.35;;;;;;;;;;4933244;29;20398;-62
2022/02/01 06:43:28;;;;;;;10.30;2.72;;;;;;;;;;4932366;29;20056;-62
2022/02/01 06:45:59;;;;;;;7.35;2.92;;;;;;;;;;4933086;29;20047;-62
2022/02/01 06:48:30;;;;;;;6.70;2.50;;;;;;;;;;4933220;29;20063;-62
2022/02/01 06:51:00;;;;;;;7.80;2.67;;;;;;;;;;4886133;29;20075;-62
2022/02/01 06:53:36;;;;;;;6.53;2.33;;;;;;;;;;4933273;29;20067;-62
2022/02/01 06:56:12;;;;;;;8.25;2.90;;;;;;;;;;4909472;28;20058;-62
2022/02/01 06:58:44;;;;;;;11.52;2.97;;;;;;;;;;4971716;28;20055;-62
2022/02/01 07:01:14;;;;;;;6.43;2.47;;;;;;;;;;4971729;28;20063;-62
2022/02/01 07:03:46;;;;;;;7.72;2.40;;;;;;;;;;4981045;28;20058;-62
2022/02/01 07:06:16;;;;;;;11.88;2.60;;;;;;;;;;4981326;28;20053;-63
2022/02/01 07:08:48;;;;;;;5.57;2.50;;;;;;;;;;4997022;28;20052;-62
2022/02/01 07:11:21;;;;;;;8.93;2.63;;;;;;;;;;4997079;28;20060;-62
2022/02/01 07:13:51;;;;;;;4.53;2.20;;;;;;;;;;4997315;28;20733;-62
2022/02/01 07:16:22;;;;;;;5.70;2.22;;;;;;;;;;5030116;28;20189;-62
2022/02/01 07:18:56;;;;;;;5.97;2.22;;;;;;;;;;5029995;28;20060;-62
2022/02/01 07:21:28;;;;;;;8.75;2.55;;;;;;;;;;5029908;28;20058;-62
2022/02/01 07:24:00;;;;;;;7.30;2.53;;;;;;;;;;5043127;28;20049;-62
2022/02/01 07:26:31;;;;;;;8.13;2.20;;;;;;;;;;4994043;28;20544;-62
2022/02/01 07:29:02;;;;;;;10.15;2.65;;;;;;;;;;4994093;28;20065;-62
2022/02/01 07:31:36;;;;;;;7.97;2.13;;;;;;;;;;4990339;28;20055;-62
2022/02/01 07:34:07;;;;;;;9.55;2.42;;;;;;;;;;4990474;28;20054;-62
2022/02/01 07:36:37;;;;;;;10.35;2.38;;;;;;;;;;4942110;28;20069;-62
2022/02/01 07:39:07;;;;;;;6.30;1.92;;;;;;;;;;4957856;28;20054;-62
2022/02/01 07:41:38;;;;;;;6.78;2.55;;;;;;;;;;4931816;29;20401;-62
2022/02/01 07:44:09;;;;;;;5.85;2.17;;;;;;;;;;4863505;29;20087;-62
2022/02/01 07:46:42;;;;;;;6.25;2.33;;;;;;;;;;4905918;29;20460;-62
2022/02/01 07:49:17;;;;;;;6.25;2.58;;;;;;;;;;4913315;29;20056;-62
2022/02/01 07:51:47;;;;;;;5.70;2.28;;;;;;;;;;4913376;29;20056;-62
2022/02/01 07:54:17;;;;;;;8.35;2.80;;;;;;;;;;4913324;29;20449;-62
2022/02/01 07:56:48;;;;;;;5.40;2.08;;;;;;;;;;4912453;29;20417;-62
2022/02/01 07:59:18;;;;;;;5.25;2.00;;;;;;;;;;4913092;29;20100;-63
2022/02/01 08:01:48;;;;;;;5.63;2.13;;;;;;;;;;4909208;29;20441;-63
2022/02/01 08:04:19;;;;;;;11.95;2.40;;;;;;;;;;4894197;29;20056;-62
2022/02/01 08:06:49;;;;;;;4.43;2.10;;;;;;;;;;4894174;29;20098;-62
2022/02/01 08:09:25;;;;;;;5.93;2.40;;;;;;;;;;4916374;29;20060;-62
2022/02/01 08:11:56;;;;;;;9.43;2.42;;;;;;;;;;4932078;29;20058;-62
2022/02/01 08:20:15;;;;;;;7.10;1.98;;;;;;;;;;4982341;28;20055;-63
2022/02/01 08:25:16;;;;;;;8.02;2.30;;;;;;;;;;5026788;28;20053;-62
2022/02/01 08:27:47;;;;;;;5.40;2.67;;;;;;;;;;5028925;28;20049;-62
2022/02/01 08:30:17;;;;;;;10.27;2.60;;;;;;;;;;4979644;28;20049;-62
2022/02/01 08:32:49;;;;;;;6.07;2.20;;;;;;;;;;5028958;28;20053;-63
2022/02/01 08:35:19;;;;;;;7.72;2.42;;;;;;;;;;5028736;28;20528;-62
2022/02/01 08:38:09;;;;;;;8.27;2.47;;;;;;;;;;5028752;28;20065;-63
2022/02/01 08:40:48;;;;;;;7.70;2.40;;;;;;;;;;5008932;28;20058;-63
2022/02/01 08:43:19;;;;;;;6.55;2.47;;;;;;;;;;4972769;28;20050;-62
2022/02/01 08:45:49;;;;;;;5.05;2.10;;;;;;;;;;4989196;28;20495;-62
2022/02/01 08:48:20;;;;;;;8.80;2.28;;;;;;;;;;4989217;28;20055;-62
2022/02/01 08:50:51;;;;;;;7.65;2.42;;;;;;;;;;4989506;28;20061;-62
2022/02/01 08:53:25;;;;;;;4.93;2.20;;;;;;;;;;4956711;28;20062;-63
2022/02/01 08:58:26;;;;;;;5.93;2.25;;;;;;;;;;4989049;28;20082;-62
2022/02/01 09:00:57;;;;;;;5.18;2.60;;;;;;;;;;5017789;28;20080;-63
2022/02/01 09:03:31;;;;;;;8.93;2.30;;;;;;;;;;5010129;28;20060;-63
2022/02/01 09:06:01;;;;;;;6.72;2.20;;;;;;;;;;4999404;28;20057;-63
2022/02/01 09:08:33;;;;;;;7.55;2.30;;;;;;;;;;5052015;28;20057;-62
2022/02/01 09:11:03;;;;;;;7.78;2.60;;;;;;;;;;5052645;28;20056;-63
2022/02/01 09:13:34;;;;;;;7.68;2.40;;;;;;;;;;5055524;28;20517;-62
2022/02/01 09:16:06;;;;;;;8.30;2.35;;;;;;;;;;5074716;28;20485;-62
2022/02/01 09:18:36;;;;;;;;;;;;;;;;;;5075152;28;20055;-62
2022/02/01 09:21:06;;;;;;;5.20;2.58;;;;;;;;;;5056053;28;19927;-63
2022/02/01 09:23:37;;;;;;;9.52;2.70;;;;;;;;;;5074431;28;20481;-62
2022/02/01 09:26:07;;;;;;;8.95;2.47;;;;;;;;;;5055822;28;20055;-62
2022/02/01 09:28:37;;;;;;;7.57;2.50;;;;;;;;;;5039851;28;20055;-62
2022/02/01 09:31:09;;;;;;;9.23;2.50;;;;;;;;;;5074487;28;20044;-62
2022/02/01 09:33:40;;;;;;;7.25;2.70;;;;;;;;;;5074544;28;20535;-62
2022/02/01 09:36:11;;;;;;;8.00;2.67;;;;;;;;;;5074555;28;20040;-63
2022/02/01 09:38:42;;;;;;;6.72;3.28;;;;;;;;;;5108766;28;20059;-62
2022/02/01 09:41:12;;;;;;;7.32;2.53;;;;;;;;;;5062312;28;20055;-62
2022/02/01 09:43:43;;;;;;;5.82;2.20;;;;;;;;;;5114857;28;20058;-62
2022/02/01 09:46:13;;;;;;;5.22;2.30;;;;;;;;;;5071665;28;20052;-63
2022/02/01 09:48:48;;;;;;;4.55;2.35;;;;;;;;;;5031685;28;20052;-63
2022/02/01 09:51:18;;;;;;;6.65;2.70;;;;;;;;;;4983110;28;20433;-63
2022/02/01 09:54:09;;;;;;;6.68;2.47;;;;;;;;;;5011515;28;20042;-62
2022/02/01 09:56:39;;;;;;;15.55;2.80;;;;;;;;;;4979138;28;20057;-63
2022/02/01 09:59:17;;;;;;;9.45;2.40;;;;;;;;;;5011881;28;20061;-62
2022/02/01 10:01:54;;;;;;;6.72;2.85;;;;;;;;;;5027999;28;20394;-62
2022/02/01 10:04:27;;;;;;;12.15;2.65;;;;;;;;;;4991786;28;20054;-63
2022/02/01 10:07:13;;;;;;;11.02;2.20;;;;;;;;;;4991940;28;20042;-63
2022/02/01 10:09:57;;;;;;;11.02;2.83;;;;;;;;;;4991743;28;20061;-63
2022/02/01 10:12:36;;;;;;;5.68;2.35;;;;;;;;;;4991933;28;20155;-63
2022/02/01 10:15:19;;;;;;;5.78;2.05;;;;;;;;;;4992253;28;20054;-63
2022/02/01 10:17:57;;;;;;;5.30;2.28;;;;;;;;;;4976324;28;20055;-62
2022/02/01 10:20:45;;;;;;;10.43;2.13;;;;;;;;;;4944455;28;20526;-63
2022/02/01 10:23:33;;;;;;;10.10;2.20;;;;;;;;;;4984837;28;20061;-63
2022/02/01 10:26:18;;;;;;;6.70;2.08;;;;;;;;;;5004494;28;20525;-62
2022/02/01 10:29:03;;;;;;;5.60;2.60;;;;;;;;;;4991751;28;20498;-63
2022/02/01 10:31:48;;;;;;;5.40;2.40;;;;;;;;;;4959579;28;20050;-63
2022/02/01 10:37:35;;;;;;;5.38;2.50;;;;;;;;;;5030824;28;20053;-63
2022/02/01 10:40:07;;;;;;;12.60;2.30;;;;;;;;;;4998035;28;20073;-63
2022/02/01 10:42:37;;;;;;;8.80;2.17;;;;;;;;;;5026680;28;20413;-63
2022/02/01 10:45:09;;;;;;;12.60;2.60;;;;;;;;;;5100758;28;20066;-63
2022/02/01 10:47:43;;;;;;;6.78;2.78;;;;;;;;;;5070478;28;20441;-63
2022/02/01 10:50:17;;;;;;;5.60;2.42;;;;;;;;;;5070703;28;20056;-63
2022/02/01 10:52:50;;;;;;;4.43;2.25;;;;;;;;;;5070500;28;20068;-63
2022/02/01 10:55:22;;;;;;;4.63;2.13;;;;;;;;;;5037093;28;20075;-63
2022/02/01 10:57:52;;;;;;;7.55;2.30;;;;;;;;;;5070522;28;20044;-64
2022/02/01 11:00:22;;;;;;;5.85;2.03;;;;;;;;;;5070426;28;20064;-64
2022/02/01 11:02:55;;;;;;;3.85;1.85;;;;;;;;;;5070444;28;20493;-64
2022/02/01 11:05:27;;;;;;;7.97;2.05;;;;;;;;;;5022002;28;20492;-63
2022/02/01 11:08:07;;;;;;;5.05;2.25;;;;;;;;;;5070121;28;20136;-64
2022/02/01 11:10:42;;;;;;;3.95;2.13;;;;;;;;;;5020721;28;20456;-63
2022/02/01 11:13:13;;;;;;;5.75;2.17;;;;;;;;;;5070113;28;20057;-64
2022/02/01 11:16:03;;;;;;;3.75;1.95;;;;;;;;;;5070080;28;20052;-64
2022/02/01 11:18:35;;;;;;;6.43;2.00;;;;;;;;;;5070405;28;20057;-63
2022/02/01 11:21:06;;;;;;;6.95;2.60;;;;;;;;;;5053623;28;20052;-64
2022/02/01 11:23:55;;;;;;;6.10;1.92;;;;;;;;;;5036666;28;20510;-64
2022/02/01 11:26:37;;;;;;;10.80;2.22;;;;;;;;;;5088221;28;20048;-64
2022/02/01 11:29:32;;;;;;;3.63;1.70;;;;;;;;;;5089912;28;20163;-64
2022/02/01 11:32:04;;;;;;;4.97;1.80;;;;;;;;;;5040194;28;20048;-65
2022/02/01 11:35:05;;;;;;;7.95;1.80;;;;;;;;;;5089886;28;20438;-64
2022/02/01 11:38:06;;;;;;;3.72;1.80;;;;;;;;;;5089708;28;20044;-65
2022/02/01 11:40:42;;;;;;;5.20;1.85;;;;;;;;;;5089763;28;20043;-65
2022/02/01 11:43:35;;;;;;;5.35;2.25;;;;;;;;;;5089759;28;20055;-65
2022/02/01 11:46:08;;;;;;;4.75;2.58;;;;;;;;;;5056190;28;20644;-65
2022/02/01 11:48:41;;;;;;;3.40;1.70;;;;;;;;;;5055901;28;20556;-63
2022/02/01 11:51:14;;;;;;;5.57;1.88;;;;;;;;;;5056147;28;20416;-65
2022/02/01 11:53:45;;;;;;;4.30;2.00;;;;;;;;;;5089625;28;20048;-66
2022/02/01 11:56:17;;;;;;;5.05;2.00;;;;;;;;;;5089667;28;20574;-65
2022/02/01 11:59:00;;;;;;;7.63;1.77;;;;;;;;;;5089401;28;20044;-65
2022/02/01 12:01:39;;;;;;;3.72;2.08;;;;;;;;;;5089498;28;20048;-64
2022/02/01 12:04:17;;;;;;;5.47;1.90;;;;;;;;;;5052376;28;20049;-65
2022/02/01 12:06:58;;;;;;;4.43;2.03;;;;;;;;;;5029042;28;20051;-64
2022/02/01 12:09:29;;;;;;;10.05;1.70;;;;;;;;;;4996176;28;20498;-64
2022/02/01 12:12:01;;;;;;;7.97;2.05;;;;;;;;;;5029133;28;20058;-64
2022/02/01 12:14:32;;;;;;;7.82;3.78;;;;;;;;;;5029241;28;20464;-65
2022/02/01 12:17:02;;;;;;;3.95;1.90;;;;;;;;;;4973140;28;20050;-64
2022/02/01 12:19:38;;;;;;;6.75;1.80;;;;;;;;;;4989555;28;20058;-65
2022/02/01 12:23:17;;;;;;;4.88;2.10;;;;;;;;;;4976378;28;20055;-65
2022/02/01 12:25:48;;;;;;;4.88;2.00;;;;;;;;;;4989347;28;20062;-65
2022/02/01 12:28:29;;;;;;;3.78;2.30;;;;;;;;;;4925838;28;20046;-65
2022/02/01 12:31:11;;;;;;;5.47;1.42;;;;;;;;;;4956894;28;20069;-64
2022/02/01 12:33:52;;;;;;;3.97;1.55;;;;;;;;;;4989621;28;20061;-66
2022/02/01 12:36:35;;;;;;;4.63;1.80;;;;;;;;;;4989714;28;20065;-69
2022/02/01 12:39:24;;;;;;;4.25;1.73;;;;;;;;;;4950636;29;20047;-67
2022/02/01 12:42:29;;;;;;;2.80;1.45;;;;;;;;;;4922212;29;20062;-67
2022/02/01 12:47:40;;;;;;;3.97;1.30;;;;;;;;;;4970109;28;20055;-67
2022/02/01 12:50:15;;;;;;;8.13;1.48;;;;;;;;;;4896414;29;20055;-65
2022/02/01 12:52:46;;;;;;;6.60;1.48;;;;;;;;;;4912260;29;20071;-65
2022/02/01 12:55:19;;;;;;;4.25;1.23;;;;;;;;;;4940346;29;20520;-65
2022/02/01 12:58:15;;;;;;;3.65;1.17;;;;;;;;;;4950594;28;20063;-65
2022/02/01 13:00:52;;;;;;;3.58;1.10;;;;;;;;;;4950363;28;20063;-66
2022/02/01 13:03:23;;;;;;;2.28;0.90;;;;;;;;;;4950646;29;20077;-65
2022/02/01 13:06:00;;;;;;;5.88;1.58;;;;;;;;;;4950276;29;20154;-65
2022/02/01 13:14:23;;;;;;;3.05;0.77;;;;;;;;;;4912222;29;20067;-66
2022/02/01 13:17:00;;;;;;;;;;;;;;;;;;4891126;29;20060;-66
2022/02/01 13:22:55;;;;;;;2.58;0.80;;;;;;;;;;5048242;28;20056;-66
2022/02/01 13:25:44;;;;;;;1.40;0.90;;;;;;;;;;5048425;28;20540;-67
2022/02/01 13:28:16;;;;;;;2.38;0.88;;;;;;;;;;5027861;28;20042;-66
2022/02/01 13:30:47;;;;;;;1.55;0.70;;;;;;;;;;5028463;28;20288;-66
2022/02/01 13:33:18;;;;;;;1.98;0.77;;;;;;;;;;5028039;28;20061;-66
2022/02/01 13:35:55;;;;;;;1.63;0.80;;;;;;;;;;5008382;28;20054;-66
2022/02/01 13:38:28;;;;;;;;;;;;;;;;;;5008424;28;20399;-66
2022/02/01 13:41:10;;;;;;;2.17;1.00;;;;;;;;;;4975604;28;19921;-68
2022/02/01 13:43:49;;;;;;;1.70;0.90;;;;;;;;;;5008512;28;20065;-69
2022/02/01 13:46:23;;;;;;;3.70;1.00;;;;;;;;;;5030900;28;20048;-68
2022/02/01 13:49:04;;;;;;;4.68;0.80;;;;;;;;;;5048198;28;20049;-68
2022/02/01 13:51:48;;;;;;;3.15;1.10;;;;;;;;;;5048010;28;20049;-69
2022/02/01 13:54:19;;;;;;;2.13;1.20;;;;;;;;;;5018291;28;20045;-67
2022/02/01 13:56:53;;;;;;;3.70;0.90;;;;;;;;;;4988382;28;20063;-69
2022/02/01 13:59:27;;;;;;;3.20;0.90;;;;;;;;;;5051513;28;20049;-69
2022/02/01 14:02:03;;;;;;;1.38;0.95;;;;;;;;;;5051104;28;20053;-68
2022/02/01 14:04:42;;;;;;;3.40;0.85;;;;;;;;;;5051515;28;20056;-69
2022/02/01 14:07:22;;;;;;;2.22;0.98;;;;;;;;;;4991826;28;20055;-68
2022/02/01 14:10:18;;;;;;;2.88;1.30;;;;;;;;;;4992039;28;20467;-69
2022/02/01 14:16:19;;;;;;;2.03;0.90;;;;;;;;;;4979210;28;20053;-69
2022/02/01 14:27:30;;;;;;;2.78;0.98;;;;;;;;;;5011455;28;20065;-69
2022/02/01 14:33:28;;;;;;;3.90;1.00;;;;;;;;;;4992011;28;20057;-70
2022/02/01 14:36:00;;;;;;;2.05;0.90;;;;;;;;;;4978786;28;20510;-68
2022/02/01 14:46:49;;;;;;;5.38;2.30;;;;;;;;;;4991346;28;20061;-69
2022/02/01 14:49:24;;;;;;;3.88;1.05;;;;;;;;;;4971784;28;20400;-68
2022/02/01 14:51:56;;;;;;;4.53;2.30;;;;;;;;;;4956572;28;20063;-66
2022/02/01 14:54:51;;;;;;;2.58;1.25;;;;;;;;;;4972150;28;20392;-63
2022/02/01 15:11:26;;;;;;;1.30;0.70;;;;;;;;;;4952508;28;20051;-66
2022/02/01 15:13:56;;;;;;;4.97;1.00;;;;;;;;;;4952288;28;20055;-65
2022/02/01 15:16:31;;;;;;;2.00;0.80;;;;;;;;;;4939961;28;20052;-66
2022/02/01 15:19:01;;;;;;;2.40;0.93;;;;;;;;;;4955750;28;20151;-68
2022/02/01 15:21:32;;;;;;;2.00;0.80;;;;;;;;;;4978224;28;20054;-63
2022/02/01 15:24:02;;;;;;;1.27;0.90;;;;;;;;;;4977928;28;20050;-64
2022/02/01 15:26:33;;;;;;;2.47;1.15;;;;;;;;;;5022969;28;20060;-63
2022/02/01 15:29:03;;;;;;;1.27;0.70;;;;;;;;;;5033742;28;20049;-63
2022/02/01 15:31:35;;;;;;;2.08;1.10;;;;;;;;;;5017554;28;20425;-64
2022/02/01 15:34:10;;;;;;;1.58;0.80;;;;;;;;;;5049682;28;20061;-63
2022/02/01 15:36:40;;;;;;;1.42;0.75;;;;;;;;;;4961177;28;20445;-64
2022/02/01 15:59:00;;;;;;;2.25;1.40;;;;;;;;;;5009767;28;20092;-64
2022/02/01 16:01:39;;;;;;;0.80;0.57;;;;;;;;;;4993285;28;20058;-63
2022/02/01 16:04:30;;;;;;;2.83;0.60;;;;;;;;;;5009614;28;20046;-63
2022/02/01 16:07:04;;;;;;;1.00;0.70;;;;;;;;;;4957537;28;20050;-64
2022/02/01 16:12:18;;;;;;;1.00;0.70;;;;;;;;;;4973401;28;20062;-63
2022/02/01 16:14:48;;;;;;;1.10;0.65;;;;;;;;;;5016920;28;20049;-63
2022/02/01 16:17:18;;;;;;;1.52;0.75;;;;;;;;;;4988979;28;20070;-63
2022/02/01 16:19:49;;;;;;;1.27;0.65;;;;;;;;;;4989622;28;20062;-64
2022/02/01 16:22:20;;;;;;;0.80;0.60;;;;;;;;;;4989601;28;20058;-63
2022/02/01 16:24:50;;;;;;;1.65;0.63;;;;;;;;;;4957326;28;20065;-64
2022/02/01 16:27:21;;;;;;;1.42;0.88;;;;;;;;;;4989849;28;20058;-63
2022/02/01 16:29:51;;;;;;;2.83;1.20;;;;;;;;;;4973157;28;20477;-63
2022/02/01 16:32:21;;;;;;;1.50;0.60;;;;;;;;;;4989239;28;20051;-64
2022/02/01 16:35:09;;;;;;;1.90;1.15;;;;;;;;;;4989359;28;20070;-63
2022/02/01 16:37:39;;;;;;;1.10;0.65;;;;;;;;;;4970000;28;20556;-63
2022/02/01 16:40:12;;;;;;;1.67;0.70;;;;;;;;;;5009351;28;20061;-64
2022/02/01 16:42:45;;;;;;;1.50;1.25;;;;;;;;;;4976496;28;20418;-62
2022/02/01 16:45:22;;;;;;;1.10;0.60;;;;;;;;;;4949491;28;20053;-63
2022/02/01 16:48:07;;;;;;;1.52;0.80;;;;;;;;;;5009201;28;20049;-64
2022/02/01 16:50:39;;;;;;;1.75;0.50;;;;;;;;;;5008558;28;20532;-65
2022/02/01 16:53:15;;;;;;;1.95;0.88;;;;;;;;;;5008867;28;20061;-65
2022/02/01 17:00:54;;;;;;;1.90;1.60;;;;;;;;;;5015346;28;20404;-68
2022/02/01 17:03:26;;;;;;;1.27;0.70;;;;;;;;;;5048389;28;20068;-63
2022/02/01 17:05:57;;;;;;;1.17;0.75;;;;;;;;;;5048506;28;20053;-65
2022/02/01 17:08:33;;;;;;;0.90;0.60;;;;;;;;;;5048335;28;20049;-64
2022/02/01 17:11:18;;;;;;;1.05;0.70;;;;;;;;;;5067003;28;20067;-64
2022/02/01 17:21:57;;;;;;;1.40;0.80;;;;;;;;;;5070649;28;20052;-63
2022/02/01 17:24:29;;;;;;;4.75;1.00;;;;;;;;;;5028216;28;20453;-66
2022/02/01 17:27:00;;;;;;;1.10;0.70;;;;;;;;;;5011619;28;20064;-64
2022/02/01 17:29:30;;;;;;;0.80;0.50;;;;;;;;;;5015192;28;20064;-63
2022/02/01 17:32:00;;;;;;;1.95;0.90;;;;;;;;;;5032093;28;20406;-63
2022/02/01 17:34:31;;;;;;;0.90;0.60;;;;;;;;;;5032240;28;20058;-67
2022/02/01 17:37:01;;;;;;;1.08;0.70;;;;;;;;;;5014723;28;20061;-66
2022/02/01 17:39:33;;;;;;;1.65;1.35;;;;;;;;;;5012231;28;20414;-62
2022/02/01 17:42:04;;;;;;;3.08;1.52;;;;;;;;;;4995779;28;20081;-62
2022/02/01 17:44:34;;;;;;;1.05;0.55;;;;;;;;;;5012380;28;20058;-63
2022/02/01 17:47:05;;;;;;;2.30;0.85;;;;;;;;;;5012094;28;20434;-63
2022/02/01 17:49:38;;;;;;;2.70;0.60;;;;;;;;;;5012035;28;20745;-64
2022/02/01 17:54:43;;;;;;;2.03;0.90;;;;;;;;;;5012051;28;20418;-64
2022/02/01 17:57:15;;;;;;;0.95;0.63;;;;;;;;;;4963333;28;20077;-63
2022/02/01 17:59:48;;;;;;;1.30;0.73;;;;;;;;;;4996683;28;20053;-65
2022/02/01 18:02:19;;;;;;;1.58;0.70;;;;;;;;;;4996208;28;20056;-65
2022/02/01 18:04:49;;;;;;;2.20;0.80;;;;;;;;;;4979330;28;20054;-66
2022/02/01 18:07:21;;;;;;;2.33;1.00;;;;;;;;;;5011659;28;20058;-64
2022/02/01 18:09:56;;;;;;;3.20;1.13;;;;;;;;;;5011642;28;20046;-65
2022/02/01 18:12:38;;;;;;;2.13;1.13;;;;;;;;;;5011501;28;20404;-65
2022/02/01 18:15:09;;;;;;;2.30;0.70;;;;;;;;;;5039330;28;20053;-65
2022/02/01 18:17:41;;;;;;;2.17;0.80;;;;;;;;;;5048768;28;20055;-66
2022/02/01 18:20:13;;;;;;;5.50;0.90;;;;;;;;;;5017946;28;20435;-66
2022/02/01 18:22:43;;;;;;;1.40;0.70;;;;;;;;;;5051329;28;20069;-66